Time;durP1;ratioP1;P1;durP2;ratioP2;P2;SDS_P1;SDS_P2;PMS_P1;PMS_P2;Temp;Humidity;BMP_temperature;BMP_pressure;BME280_temperature;BME280_humidity;BME280_pressure;Samples;Min_cycle;Max_cycle;Signal;HPM_P1;HPM_P2
2023/04/20 00:00:11;;;;;;;4.63;2.90;;;3.30;99.90;;;2.54;100.00;97205.25;5026505;28;20072;-45
2023/04/20 00:02:38;;;;;;;5.32;3.47;;;3.30;99.90;;;2.55;100.00;97203.50;5023283;28;20047;-44
2023/04/20 00:05:06;;;;;;;4.97;3.08;;;3.30;99.90;;;2.58;100.00;97203.50;5024057;28;20031;-45
2023/04/20 00:07:32;;;;;;;5.53;3.25;;;3.40;99.90;;;2.59;100.00;97200.88;5018945;28;20241;-49
2023/04/20 00:09:59;;;;;;;8.20;3.00;;;3.40;99.90;;;2.63;100.00;97204.31;5009488;28;20025;-48
2023/04/20 00:12:24;;;;;;;5.38;3.30;;;3.40;99.90;;;2.65;100.00;97199.97;5027002;28;20485;-45
2023/04/20 00:14:50;;;;;;;7.22;3.08;;;3.40;99.90;;;2.65;100.00;97194.75;5023628;28;20071;-49
2023/04/20 00:17:16;;;;;;;4.43;2.80;;;3.40;99.90;;;2.66;100.00;97191.28;5031466;28;20107;-46
2023/04/20 00:19:42;;;;;;;4.30;3.05;;;3.40;99.90;;;2.63;100.00;97186.94;5025924;28;20042;-49
2023/04/20 00:22:08;;;;;;;8.57;3.50;;;3.50;99.90;;;2.64;100.00;97191.28;5029144;28;20203;-48
2023/04/20 00:24:34;;;;;;;4.15;2.97;;;3.40;99.90;;;2.46;100.00;97168.03;5028730;28;20396;-48
2023/04/20 00:26:59;;;;;;;5.32;2.80;;;3.30;99.90;;;2.53;100.00;97169.69;5012879;28;20082;-49
2023/04/20 00:29:25;;;;;;;6.28;3.25;;;3.30;99.90;;;2.54;100.00;97170.56;5027956;28;20056;-49
2023/04/20 00:31:51;;;;;;;5.20;3.10;;;3.30;99.90;;;2.51;100.00;97175.78;5031680;28;20033;-46
2023/04/20 00:34:17;;;;;;;4.55;2.90;;;3.20;99.90;;;2.40;100.00;97161.09;5027242;28;20028;-48
2023/04/20 00:36:43;;;;;;;4.47;3.10;;;3.20;99.90;;;2.24;100.00;97147.38;5029721;28;20028;-48
2023/04/20 00:39:09;;;;;;;5.00;3.00;;;3.10;99.90;;;2.35;100.00;97167.22;5016386;28;20040;-45
2023/04/20 00:41:35;;;;;;;4.65;3.00;;;3.10;99.90;;;2.24;100.00;97160.41;5031539;28;20072;-46
2023/04/20 00:44:01;;;;;;;4.50;3.15;;;3.00;99.90;;;2.20;100.00;97161.28;5030553;28;20124;-49
2023/04/20 00:46:26;;;;;;;5.18;3.13;;;2.90;99.90;;;2.17;100.00;97163.03;5028084;28;20622;-48
2023/04/20 00:48:53;;;;;;;4.72;3.13;;;2.90;99.90;;;2.13;100.00;97163.94;5037083;28;20402;-47
2023/04/20 00:51:21;;;;;;;5.10;3.40;;;2.90;99.90;;;2.05;100.00;97151.00;5008256;28;20111;-49
2023/04/20 00:53:46;;;;;;;6.20;3.30;;;2.80;99.90;;;2.05;100.00;97153.59;5030878;28;20036;-47
2023/04/20 00:56:13;;;;;;;4.13;3.00;;;2.80;99.90;;;1.99;100.00;97145.81;5035428;28;20052;-46
2023/04/20 00:58:41;;;;;;;4.88;2.90;;;2.70;99.90;;;1.94;100.00;97140.66;5032007;28;20036;-48
2023/04/20 01:01:07;;;;;;;5.72;3.17;;;2.70;99.90;;;1.89;100.00;97140.69;5033493;28;20032;-49
2023/04/20 01:03:33;;;;;;;8.38;3.58;;;2.70;99.90;;;1.86;100.00;97137.25;5028170;28;20496;-48
2023/04/20 01:06:00;;;;;;;5.63;3.47;;;2.60;99.90;;;1.85;100.00;97143.34;5016531;28;20053;-49
2023/04/20 01:08:26;;;;;;;7.38;3.65;;;2.60;99.90;;;1.83;100.00;97132.94;5012697;28;20029;-45
2023/04/20 01:10:55;;;;;;;6.38;3.63;;;2.60;99.90;;;1.82;100.00;97127.75;5032993;28;20022;-49
2023/04/20 01:13:21;;;;;;;6.43;3.45;;;2.60;99.90;;;1.73;100.00;97109.63;5028040;28;20044;-48
2023/04/20 01:15:47;;;;;;;4.95;3.67;;;2.50;99.90;;;1.79;100.00;97122.56;5026180;28;20025;-49
2023/04/20 01:18:14;;;;;;;6.57;3.58;;;2.50;99.90;;;1.72;100.00;97116.53;5024686;28;20025;-49
2023/04/20 01:20:40;;;;;;;5.97;3.33;;;2.50;99.90;;;1.71;100.00;97107.03;5027349;28;20866;-47
2023/04/20 01:23:05;;;;;;;5.60;3.50;;;2.50;99.90;;;1.71;100.00;97104.41;5031479;28;20040;-48
2023/04/20 01:25:31;;;;;;;6.15;3.53;;;2.50;99.90;;;1.71;100.00;97097.47;5028280;28;20662;-49
2023/04/20 01:27:57;;;;;;;6.40;3.55;;;2.40;99.90;;;1.68;100.00;97094.03;5030723;28;20116;-48
2023/04/20 01:30:22;;;;;;;5.53;3.50;;;2.50;99.90;;;1.66;100.00;97094.03;5012640;28;20392;-49
2023/04/20 01:32:48;;;;;;;7.93;4.13;;;2.40;99.90;;;1.60;100.00;97091.50;5028926;28;20089;-50
2023/04/20 01:35:15;;;;;;;4.45;3.47;;;2.40;99.90;;;1.63;100.00;97086.25;5023476;28;20450;-48
2023/04/20 01:37:41;;;;;;;5.30;3.45;;;2.40;99.90;;;1.61;100.00;97081.94;5029116;28;20029;-49
2023/04/20 01:40:12;;;;;;;5.15;3.60;;;2.40;99.90;;;1.58;100.00;97077.66;5028178;28;20440;-49
2023/04/20 01:42:38;;;;;;;9.48;3.63;;;2.30;99.90;;;1.53;100.00;97077.66;5026918;28;20060;-48
2023/04/20 01:45:07;;;;;;;5.85;3.65;;;2.30;99.90;;;1.49;100.00;97072.47;5025474;28;20037;-47
2023/04/20 01:47:33;;;;;;;5.22;3.67;;;2.30;99.90;;;1.46;100.00;97067.31;5028679;28;20091;-50
2023/04/20 01:49:59;;;;;;;5.85;3.22;;;2.20;99.90;;;1.39;100.00;97063.91;5030482;28;20025;-46
2023/04/20 01:52:25;;;;;;;6.85;3.63;;;2.10;99.90;;;1.39;100.00;97063.91;5029415;28;20044;-50
2023/04/20 01:54:50;;;;;;;5.97;3.80;;;2.10;99.90;;;1.36;100.00;97065.66;5024029;28;20611;-48
2023/04/20 01:57:16;;;;;;;5.28;3.50;;;2.10;99.90;;;1.33;100.00;97056.16;5030940;28;20037;-49
2023/04/20 01:59:42;;;;;;;6.68;3.78;;;2.10;99.90;;;1.32;100.00;97050.06;5030137;28;20029;-48
2023/04/20 02:02:07;;;;;;;5.78;3.58;;;2.10;99.90;;;1.30;100.00;97049.22;5030788;28;20086;-44
2023/04/20 02:04:33;;;;;;;5.40;3.72;;;2.10;99.90;;;1.29;100.00;97049.22;5025297;28;20297;-49
2023/04/20 02:06:59;;;;;;;6.65;3.90;;;2.10;99.90;;;1.26;100.00;97055.31;5030330;28;20021;-49
2023/04/20 02:09:24;;;;;;;8.43;3.90;;;2.00;99.90;;;1.27;100.00;97050.97;5025202;28;20668;-49
2023/04/20 02:11:50;;;;;;;5.80;3.35;;;2.00;99.90;;;1.23;100.00;97042.34;5030368;28;20021;-49
2023/04/20 02:14:16;;;;;;;7.75;3.83;;;2.00;99.90;;;1.22;100.00;97048.41;5025207;28;20087;-49
2023/04/20 02:16:41;;;;;;;6.65;4.00;;;2.00;99.90;;;1.20;100.00;97046.69;5029454;28;20037;-48
2023/04/20 02:19:08;;;;;;;9.15;4.43;;;2.00;99.90;;;1.20;100.00;97050.13;5032050;28;20079;-49
2023/04/20 02:21:34;;;;;;;6.07;4.18;;;2.00;99.90;;;1.22;100.00;97045.81;5026015;28;20028;-45
2023/04/20 02:24:00;;;;;;;7.00;4.10;;;2.00;99.90;;;1.22;100.00;97038.03;5008427;28;20303;-46
2023/04/20 02:26:26;;;;;;;6.13;3.55;;;2.00;99.90;;;1.23;100.00;97031.94;5029802;28;20106;-49
2023/04/20 02:28:51;;;;;;;7.03;4.03;;;2.00;99.90;;;1.23;100.00;97031.94;5021758;28;20032;-45
2023/04/20 02:31:17;;;;;;;6.03;3.85;;;2.00;99.90;;;1.21;100.00;97031.09;5029845;28;20090;-45
2023/04/20 02:33:43;;;;;;;5.50;3.85;;;1.90;99.90;;;1.19;100.00;97024.19;5029523;28;20063;-47
2023/04/20 02:36:09;;;;;;;6.28;4.15;;;1.90;99.90;;;1.14;100.00;97021.59;5028603;28;20572;-46
2023/04/20 02:38:36;;;;;;;5.05;3.95;;;1.90;99.90;;;1.13;100.00;97028.53;5026383;28;20041;-44
2023/04/20 02:41:02;;;;;;;6.20;4.00;;;1.90;99.90;;;1.09;100.00;97021.63;5025486;28;20091;-45
2023/04/20 02:43:28;;;;;;;6.10;4.00;;;1.90;99.90;;;1.06;100.00;97021.66;5025237;28;20028;-45
2023/04/20 02:45:53;;;;;;;6.43;3.95;;;1.80;99.90;;;1.06;100.00;97024.25;5022887;28;20032;-46
2023/04/20 02:48:19;;;;;;;5.25;3.83;;;1.80;99.90;;;1.08;100.00;97016.47;5030388;28;20029;-45
2023/04/20 02:50:45;;;;;;;6.30;4.50;;;1.90;99.90;;;1.07;100.00;97010.38;5027051;28;20715;-45
2023/04/20 02:53:10;;;;;;;5.68;3.78;;;1.90;99.90;;;1.05;100.00;97012.13;5025349;28;20175;-45
2023/04/20 02:55:36;;;;;;;5.65;3.90;;;1.80;99.90;;;1.00;100.00;97005.25;5023159;28;20029;-46
2023/04/20 02:58:02;;;;;;;5.85;4.07;;;1.80;99.90;;;1.01;100.00;97006.97;5029162;28;20353;-46
2023/04/20 03:00:27;;;;;;;9.93;4.40;;;1.80;99.90;;;1.00;100.00;97007.84;5033552;28;20804;-47
2023/04/20 03:02:53;;;;;;;7.00;4.45;;;1.80;99.90;;;0.97;100.00;97007.84;5051391;23;20497;-38
2023/04/20 03:05:19;;;;;;;6.50;3.95;;;1.80;99.90;;;0.98;100.00;97004.41;5045945;28;20036;-38
2023/04/20 03:07:44;;;;;;;5.97;4.20;;;1.80;99.90;;;0.94;100.00;97004.41;5044086;28;20029;-39
2023/04/20 03:10:11;;;;;;;8.55;3.70;;;1.70;99.90;;;0.94;100.00;97007.00;5044222;28;20459;-38
2023/04/20 03:12:36;;;;;;;7.18;4.13;;;1.70;99.90;;;0.91;100.00;97000.94;5048270;28;20082;-38
2023/04/20 03:15:06;;;;;;;6.70;4.05;;;1.70;99.90;;;0.91;100.00;96998.34;5028786;28;20059;-38
2023/04/20 03:17:32;;;;;;;7.63;4.68;;;1.70;99.90;;;0.85;100.00;96985.44;5031579;28;20510;-39
2023/04/20 03:19:58;;;;;;;6.88;4.25;;;1.70;99.90;;;0.88;100.00;97000.97;5046967;28;20040;-38
2023/04/20 03:22:23;;;;;;;7.65;3.97;;;1.70;99.90;;;0.89;100.00;96992.31;5043559;28;21189;-38
2023/04/20 03:24:50;;;;;;;5.70;3.88;;;1.70;99.90;;;0.84;100.00;96989.72;5042356;28;20048;-38
2023/04/20 03:27:16;;;;;;;6.35;4.22;;;1.70;99.90;;;0.83;100.00;96993.22;5046580;28;20032;-38
2023/04/20 03:29:42;;;;;;;5.03;3.88;;;1.60;99.90;;;0.78;100.00;96984.59;5043887;28;20047;-38
2023/04/20 03:32:07;;;;;;;6.38;4.07;;;1.60;99.90;;;0.75;100.00;96984.59;5046503;28;21471;-38
2023/04/20 03:34:33;;;;;;;7.45;4.40;;;1.60;99.90;;;0.73;100.00;96986.34;5046593;28;20048;-38
2023/04/20 03:36:59;;;;;;;7.80;4.68;;;1.50;99.90;;;0.73;100.00;96988.94;5042679;28;20055;-38
2023/04/20 03:39:24;;;;;;;7.70;4.32;;;1.50;99.90;;;0.69;100.00;96985.47;5043982;28;20043;-39
2023/04/20 03:41:50;;;;;;;6.65;4.65;;;1.50;99.90;;;0.74;100.00;96977.69;5027589;28;20020;-38
2023/04/20 03:44:16;;;;;;;7.05;4.57;;;1.50;99.90;;;0.73;100.00;96983.75;5046388;28;20024;-38
2023/04/20 03:46:41;;;;;;;9.15;4.43;;;1.50;99.90;;;0.75;100.00;96979.41;5047854;28;20037;-38
2023/04/20 03:49:07;;;;;;;7.38;4.70;;;1.50;99.90;;;0.53;100.00;96939.72;5049496;28;20400;-38
2023/04/20 03:51:33;;;;;;;7.55;4.20;;;1.50;99.90;;;0.67;100.00;96973.41;5051761;28;20123;-38
2023/04/20 03:53:58;;;;;;;8.55;4.32;;;1.50;99.90;;;0.68;100.00;96976.00;5029393;28;20048;-39
2023/04/20 03:56:26;;;;;;;6.20;4.28;;;1.50;99.90;;;0.64;100.00;96973.41;5050439;28;20940;-38
2023/04/20 03:58:51;;;;;;;8.38;4.13;;;1.50;99.90;;;0.53;100.00;96966.53;5040918;28;20512;-38
2023/04/20 04:01:17;;;;;;;6.50;4.47;;;1.40;99.90;;;0.54;100.00;96972.59;5051527;28;20150;-38
2023/04/20 04:03:43;;;;;;;8.25;4.70;;;1.40;99.90;;;0.48;100.00;96978.66;5044406;28;20032;-38
2023/04/20 04:06:09;;;;;;;9.30;4.80;;;1.30;99.90;;;0.42;100.00;96964.84;5055746;28;20032;-38
2023/04/20 04:08:35;;;;;;;8.05;5.03;;;1.30;99.90;;;0.44;100.00;96971.75;5041503;28;20078;-38
2023/04/20 04:11:01;;;;;;;8.38;4.80;;;1.20;99.90;;;0.42;100.00;96967.44;5050704;28;20951;-38
2023/04/20 04:13:26;;;;;;;7.53;4.70;;;1.20;99.90;;;0.40;100.00;96970.03;5051007;28;20064;-38
2023/04/20 04:15:52;;;;;;;7.97;5.15;;;1.20;99.90;;;0.37;100.00;96967.47;5036396;28;20354;-38
2023/04/20 04:18:20;;;;;;;8.13;5.20;;;1.20;99.90;;;0.36;100.00;96968.34;5047167;28;20032;-38
2023/04/20 04:20:46;;;;;;;8.50;4.95;;;1.20;99.90;;;0.36;100.00;96976.13;5049105;28;20037;-38
2023/04/20 04:23:12;;;;;;;6.95;4.40;;;1.10;99.90;;;0.34;100.00;96972.66;5048117;28;20043;-38
2023/04/20 04:25:41;;;;;;;6.88;4.35;;;1.10;99.90;;;0.18;100.00;96940.75;5045356;28;20040;-38
2023/04/20 04:28:06;;;;;;;7.22;5.10;;;1.10;99.90;;;0.33;100.00;96965.75;5047880;28;20146;-38
2023/04/20 04:30:32;;;;;;;6.30;4.43;;;1.10;99.90;;;0.29;100.00;96961.44;5051272;28;20046;-38
2023/04/20 04:32:58;;;;;;;8.02;4.90;;;1.10;99.90;;;0.31;100.00;96970.94;5032717;28;20029;-38
2023/04/20 04:35:25;;;;;;;8.73;5.05;;;1.10;99.90;;;0.36;100.00;96969.19;5029432;28;20354;-38
2023/04/20 04:37:51;;;;;;;9.27;5.30;;;1.10;99.90;;;0.37;100.00;96968.31;5051428;28;20045;-38
2023/04/20 04:40:17;;;;;;;7.28;4.90;;;1.20;99.90;;;0.29;100.00;96961.44;5046821;28;20029;-38
2023/04/20 04:42:44;;;;;;;11.00;5.40;;;1.20;99.90;;;0.33;100.00;96970.94;5043197;28;20047;-38
2023/04/20 04:45:12;;;;;;;8.48;5.75;;;1.20;99.90;;;0.34;100.00;96970.06;5038117;28;20062;-38
2023/04/20 04:47:39;;;;;;;7.45;4.90;;;1.20;99.90;;;0.41;100.00;96971.75;5044993;28;20838;-38
2023/04/20 04:50:08;;;;;;;7.95;5.15;;;1.20;99.90;;;0.42;100.00;96965.72;5053292;28;20321;-38
2023/04/20 04:52:34;;;;;;;6.70;5.20;;;1.30;99.90;;;0.51;100.00;96976.03;5052158;28;20314;-38
2023/04/20 04:54:59;;;;;;;7.75;5.43;;;1.30;99.90;;;0.47;100.00;96963.97;5029697;28;20081;-38
2023/04/20 04:57:26;;;;;;;8.20;5.35;;;1.40;99.90;;;0.56;100.00;96956.13;5049816;28;20577;-38
2023/04/20 04:59:51;;;;;;;8.40;5.25;;;1.40;99.90;;;0.64;100.00;96968.22;5051171;28;20048;-38
2023/04/20 05:02:17;;;;;;;7.50;5.15;;;1.50;99.90;;;0.67;100.00;96968.22;5046803;28;20451;-38
2023/04/20 05:04:43;;;;;;;7.35;5.10;;;1.50;99.90;;;0.71;100.00;96975.09;5048134;28;20705;-38
2023/04/20 05:07:12;;;;;;;7.63;4.95;;;1.50;99.90;;;0.74;100.00;96972.50;5053479;28;20111;-38
2023/04/20 05:09:38;;;;;;;10.75;5.78;;;1.60;99.90;;;0.77;100.00;96977.66;5040881;28;20649;-38
2023/04/20 05:12:05;;;;;;;9.40;5.28;;;1.60;99.90;;;0.86;100.00;96971.56;5045088;28;20044;-38
2023/04/20 05:14:32;;;;;;;9.70;5.72;;;1.70;99.90;;;0.95;100.00;96974.09;5039076;28;20112;-38
2023/04/20 05:16:59;;;;;;;9.13;5.30;;;1.70;99.90;;;1.04;100.00;96971.47;5047531;28;20024;-38
2023/04/20 05:19:24;;;;;;;7.55;5.53;;;1.80;99.90;;;1.10;100.00;96971.41;5049106;28;20072;-38
2023/04/20 05:21:50;;;;;;;6.15;4.47;;;1.90;99.90;;;1.14;100.00;96969.66;5046107;28;20120;-38
2023/04/20 05:24:16;;;;;;;7.45;5.25;;;2.00;99.90;;;1.24;100.00;96980.84;5044738;28;21313;-38
2023/04/20 05:26:42;;;;;;;11.15;5.10;;;2.10;99.90;;;1.32;100.00;96977.31;5046071;28;20033;-38
2023/04/20 05:29:08;;;;;;;9.40;5.35;;;2.10;99.90;;;1.39;100.00;96979.91;5036720;28;20031;-38
2023/04/20 05:31:33;;;;;;;11.68;6.03;;;2.20;99.90;;;1.51;100.00;96985.84;5043388;28;20036;-38
2023/04/20 05:34:00;;;;;;;6.40;5.13;;;2.30;99.90;;;1.50;100.00;96980.66;5047677;28;20575;-38
2023/04/20 05:36:28;;;;;;;9.48;5.60;;;2.30;99.90;;;1.55;100.00;96983.25;5048729;28;20202;-38
2023/04/20 05:38:54;;;;;;;8.27;5.18;;;2.40;99.90;;;1.67;100.00;96981.41;5050017;28;20048;-38
2023/04/20 05:41:25;;;;;;;8.30;5.13;;;2.40;99.90;;;1.73;100.00;96974.44;5052562;28;20052;-38
2023/04/20 05:43:51;;;;;;;8.52;5.60;;;2.60;99.90;;;1.77;100.00;96976.13;5046656;28;20684;-38
2023/04/20 05:46:16;;;;;;;9.63;5.20;;;2.60;99.90;;;1.80;100.00;96973.50;5053842;28;20024;-38
2023/04/20 05:48:42;;;;;;;10.35;5.63;;;2.70;99.90;;;1.96;100.00;96985.47;5047903;28;20028;-38
2023/04/20 05:51:08;;;;;;;9.93;5.38;;;2.70;99.90;;;1.94;100.00;96970.75;5050198;28;20024;-38
2023/04/20 05:53:33;;;;;;;8.57;5.57;;;2.80;99.90;;;2.07;100.00;96982.78;5051515;28;20117;-38
2023/04/20 05:55:59;;;;;;;11.65;5.68;;;2.90;99.90;;;2.10;100.00;96981.00;5032463;28;20025;-38
2023/04/20 05:58:26;;;;;;;10.10;5.63;;;3.00;99.90;;;2.23;100.00;96980.88;5049209;28;20127;-38
2023/04/20 06:00:51;;;;;;;9.70;5.80;;;3.00;99.90;;;2.27;100.00;96970.41;5048334;28;20024;-38
2023/04/20 06:03:17;;;;;;;13.82;8.25;;;3.10;99.90;;;2.37;100.00;96971.19;5049761;28;20520;-38
2023/04/20 06:05:43;;;;;;;8.10;5.40;;;3.20;99.90;;;2.32;100.00;96954.75;5047631;28;20031;-38
2023/04/20 06:08:08;;;;;;;10.38;5.85;;;3.20;99.90;;;2.53;100.00;96974.47;5049374;28;20491;-38
2023/04/20 06:10:34;;;;;;;8.48;5.47;;;3.30;99.90;;;2.64;100.00;96969.13;5048404;28;20032;-38
2023/04/20 06:13:00;;;;;;;8.73;5.43;;;3.40;99.90;;;2.65;100.00;96971.69;5048226;28;20574;-38
2023/04/20 06:15:26;;;;;;;10.20;6.00;;;3.50;99.90;;;2.69;100.00;96975.13;5046889;28;20086;-38
2023/04/20 06:17:51;;;;;;;7.82;5.53;;;3.50;99.90;;;2.73;100.00;96978.53;5048519;28;20858;-38
2023/04/20 06:20:18;;;;;;;10.02;5.82;;;3.50;99.90;;;2.78;100.00;96964.59;5050677;28;20039;-38
2023/04/20 06:22:44;;;;;;;11.23;5.57;;;3.60;99.90;;;2.72;100.00;96946.44;5050433;28;20493;-39
2023/04/20 06:25:10;;;;;;;11.15;6.15;;;3.70;99.90;;;2.99;100.00;96971.25;5048110;28;20166;-38
2023/04/20 06:27:37;;;;;;;11.85;6.05;;;3.80;99.90;;;3.05;100.00;96970.28;5047357;28;20503;-38
2023/04/20 06:30:03;;;;;;;9.63;5.93;;;3.80;99.90;;;3.12;100.00;96966.72;5049994;28;20035;-38
2023/04/20 06:32:29;;;;;;;10.40;5.97;;;3.90;99.90;;;3.28;100.00;96967.34;5048010;28;20039;-38
2023/04/20 06:34:55;;;;;;;8.43;5.85;;;4.00;99.90;;;3.36;100.00;96975.09;5047682;28;20267;-38
2023/04/20 06:37:20;;;;;;;9.88;6.03;;;4.20;99.90;;;3.49;100.00;96960.97;5048745;28;20496;-38
2023/04/20 06:39:46;;;;;;;9.93;6.10;;;4.20;99.90;;;3.54;100.00;96966.97;5045843;28;20036;-38
2023/04/20 06:42:12;;;;;;;7.28;4.85;;;4.30;99.90;;;3.69;100.00;96967.59;5050803;28;20079;-38
2023/04/20 06:44:39;;;;;;;12.25;5.95;;;4.50;99.90;;;3.71;100.00;96952.78;5046075;28;20317;-38
2023/04/20 06:47:05;;;;;;;9.38;6.35;;;4.60;99.90;;;3.86;100.00;96964.69;5050051;28;20027;-38
2023/04/20 06:49:30;;;;;;;8.55;6.13;;;4.70;99.90;;;3.91;100.00;96962.88;5029386;28;20025;-38
2023/04/20 06:51:56;;;;;;;7.50;5.57;;;4.70;99.90;;;3.93;100.00;96959.38;5048395;28;20396;-38
2023/04/20 06:54:22;;;;;;;8.93;6.10;;;4.80;99.90;;;4.05;100.00;96954.81;5047466;28;20036;-38
2023/04/20 06:56:47;;;;;;;11.30;6.43;;;4.80;99.90;;;4.10;100.00;96959.06;5049727;28;20033;-38
2023/04/20 06:59:16;;;;;;;9.48;5.32;;;4.90;99.90;;;4.06;100.00;96933.06;5052581;28;20473;-38
2023/04/20 07:01:42;;;;;;;8.35;5.57;;;5.00;99.90;;;4.31;100.00;96960.41;5048384;28;20408;-38
2023/04/20 07:04:08;;;;;;;10.48;5.78;;;5.10;99.90;;;4.44;100.00;96960.19;5050343;28;20454;-38
2023/04/20 07:06:34;;;;;;;10.15;5.90;;;5.20;99.90;;;4.50;100.00;96947.00;5050385;28;20035;-38
2023/04/20 07:08:59;;;;;;;8.45;6.10;;;5.30;99.90;;;4.64;100.00;96949.31;5048586;28;20047;-39
2023/04/20 07:11:25;;;;;;;10.02;5.78;;;5.40;99.90;;;4.78;100.00;96953.38;5046363;28;20344;-38
2023/04/20 07:13:51;;;;;;;8.35;5.88;;;5.50;99.90;;;4.87;100.00;96957.53;5045725;28;20032;-38
2023/04/20 07:16:16;;;;;;;11.40;6.30;;;5.60;99.90;;;4.92;100.00;96954.84;5046930;28;20556;-38
2023/04/20 07:18:42;;;;;;;8.82;5.95;;;5.70;99.90;;;4.95;100.00;96950.41;5048378;28;20032;-39
2023/04/20 07:21:08;;;;;;;10.15;6.00;;;5.70;99.90;;;5.04;100.00;96954.53;5048716;28;20475;-38
2023/04/20 07:23:34;;;;;;;12.35;6.13;;;5.80;99.90;;;5.00;100.00;96926.75;5047151;28;20028;-39
2023/04/20 07:25:59;;;;;;;10.00;6.07;;;5.90;99.90;;;5.17;100.00;96944.69;5049556;28;20040;-38
2023/04/20 07:28:25;;;;;;;9.07;5.68;;;5.90;99.90;;;5.15;100.00;96947.34;5049711;28;20359;-38
2023/04/20 07:30:51;;;;;;;11.77;5.80;;;5.80;99.90;;;5.10;100.00;96943.97;5046797;28;20231;-38
2023/04/20 07:33:17;;;;;;;11.68;5.63;;;5.80;99.90;;;5.15;100.00;96951.69;5047715;28;20029;-38
2023/04/20 07:35:42;;;;;;;10.27;6.30;;;5.80;99.90;;;5.22;100.00;96949.81;5044961;28;20052;-39
2023/04/20 07:38:08;;;;;;;9.68;6.53;;;5.90;99.90;;;5.45;100.00;96955.34;5049322;28;20036;-38
2023/04/20 07:40:34;;;;;;;13.55;6.22;;;6.10;99.90;;;5.79;100.00;96954.53;5054891;28;20102;-38
2023/04/20 07:42:59;;;;;;;10.55;5.80;;;6.40;99.90;;;6.19;100.00;96948.31;5053151;28;20048;-38
2023/04/20 07:45:25;;;;;;;11.32;6.90;;;6.80;99.90;;;6.46;100.00;96945.81;5034669;28;20029;-38
2023/04/20 07:47:52;;;;;;;8.05;5.78;;;7.20;99.90;;;6.94;100.00;96942.69;5058242;28;20024;-38
2023/04/20 07:50:18;;;;;;;11.60;6.38;;;7.70;99.90;;;7.13;97.69;96950.03;5058247;28;20024;-38
2023/04/20 07:52:44;;;;;;;12.50;6.20;;;7.90;99.90;;;7.34;94.66;96953.75;5057465;28;20102;-38
2023/04/20 07:55:10;;;;;;;11.48;5.78;;;8.00;99.90;;;7.28;93.06;96946.94;5055167;28;20561;-38
2023/04/20 07:57:36;;;;;;;10.68;5.38;;;8.00;99.90;;;7.33;95.67;96952.88;5058596;28;20032;-38
2023/04/20 08:00:07;;;;;;;11.05;5.93;;;8.00;99.90;;;7.43;94.27;96954.31;5055492;28;20082;-38
2023/04/20 08:02:33;;;;;;;9.48;6.30;;;8.20;99.90;;;7.64;93.48;96959.78;5038192;28;21603;-38
2023/04/20 08:05:00;;;;;;;8.90;6.05;;;8.30;99.90;;;7.86;88.29;96951.22;5052739;28;20452;-38
2023/04/20 08:07:27;;;;;;;9.23;5.95;;;8.50;99.90;;;8.07;88.68;96945.22;5054664;28;20363;-38
2023/04/20 08:09:52;;;;;;;9.02;5.93;;;8.70;99.90;;;8.40;89.15;96956.34;5056951;28;20037;-36
2023/04/20 08:12:18;;;;;;;7.63;5.47;;;9.00;99.90;;;8.71;83.52;96964.94;5054685;28;20208;-38
2023/04/20 08:14:44;;;;;;;10.88;6.50;;;9.30;99.90;;;8.73;82.04;96963.09;5053673;28;20060;-38
2023/04/20 08:17:10;;;;;;;9.48;6.30;;;9.50;99.90;;;8.79;77.76;96947.09;5056755;28;20097;-39
2023/04/20 08:19:35;;;;;;;9.38;5.82;;;9.50;99.90;;;8.69;79.74;96945.75;5058617;28;20020;-38
2023/04/20 08:22:01;;;;;;;8.05;5.70;;;9.50;99.90;;;8.55;80.08;96947.09;5056664;28;20047;-38
2023/04/20 08:24:27;;;;;;;12.80;5.40;;;9.30;99.90;;;8.27;80.63;96936.66;5053944;28;20388;-38
2023/04/20 08:26:52;;;;;;;10.20;6.68;;;9.20;99.90;;;8.09;86.57;96948.66;5055866;28;20321;-38
2023/04/20 08:29:18;;;;;;;7.55;5.47;;;9.00;99.90;;;8.00;85.81;96952.47;5056687;28;20455;-38
2023/04/20 08:31:44;;;;;;;6.97;5.15;;;8.80;99.90;;;7.88;87.32;96950.25;5057345;28;20028;-38
2023/04/20 08:34:11;;;;;;;8.82;5.95;;;8.60;99.90;;;7.75;87.50;96946.31;5053092;28;20036;-38
2023/04/20 08:36:36;;;;;;;9.15;6.20;;;8.50;99.90;;;7.64;91.55;96949.28;5055762;28;20501;-38
2023/04/20 08:39:10;;;;;;;8.15;5.43;;;8.40;99.90;;;7.56;91.60;96938.19;5053029;28;20033;-38
2023/04/20 08:41:36;;;;;;;11.25;6.18;;;8.30;99.90;;;7.44;93.68;96942.06;5053873;28;20041;-38
2023/04/20 08:44:03;;;;;;;7.97;6.07;;;8.10;99.90;;;7.25;97.34;96941.81;5052467;28;20043;-38
2023/04/20 08:46:29;;;;;;;10.25;6.47;;;8.00;99.90;;;7.09;100.00;96944.03;5055031;28;20484;-38
2023/04/20 08:48:56;;;;;;;9.98;5.97;;;7.80;99.90;;;6.99;100.00;96929.47;5056360;28;20234;-38
2023/04/20 08:51:23;;;;;;;12.45;7.15;;;7.70;99.90;;;6.88;100.00;96940.28;5037943;28;20097;-38
2023/04/20 08:53:49;;;;;;;11.70;6.28;;;7.70;99.90;;;6.87;100.00;96941.16;5054185;28;20468;-38
2023/04/20 08:56:14;;;;;;;9.13;6.15;;;7.70;99.90;;;6.91;100.00;96937.56;5055813;28;20028;-38
2023/04/20 08:58:41;;;;;;;6.65;5.03;;;7.60;99.90;;;6.98;100.00;96935.59;5054475;28;20093;-38
2023/04/20 09:01:10;;;;;;;9.95;6.65;;;7.60;99.90;;;6.96;100.00;96938.28;5055554;28;20194;-38
2023/04/20 09:03:43;;;;;;;8.45;5.93;;;7.70;99.90;;;7.00;100.00;96933.78;5057291;23;20131;-49
2023/04/20 09:06:17;;;;;;;9.40;6.55;;;7.70;99.90;;;6.95;100.00;96939.19;5025296;28;20038;-49
2023/04/20 09:08:44;;;;;;;10.48;5.53;;;7.70;99.90;;;6.97;100.00;96940.00;5028188;28;20326;-48
2023/04/20 09:11:23;;;;;;;10.60;6.50;;;7.70;99.90;;;7.05;100.00;96939.75;5028466;28;20029;-48
2023/04/20 09:14:09;;;;;;;8.80;5.95;;;7.70;99.90;;;7.08;100.00;96939.69;5026375;28;20664;-49
2023/04/20 09:16:36;;;;;;;9.80;6.35;;;7.80;99.90;;;7.09;100.00;96933.53;5025735;28;20028;-46
2023/04/20 09:19:02;;;;;;;10.63;5.65;;;7.90;99.90;;;7.11;100.00;96939.59;5031430;28;20055;-45
2023/04/20 09:21:28;;;;;;;9.32;6.07;;;7.90;99.90;;;7.05;100.00;96929.28;5023208;28;20214;-49
2023/04/20 09:24:07;;;;;;;10.60;5.60;;;7.90;99.90;;;7.04;100.00;96932.81;5023733;28;20041;-49
2023/04/20 09:26:34;;;;;;;18.48;5.95;;;7.80;99.90;;;6.95;100.00;96922.63;5029270;28;20040;-48
2023/04/20 09:29:02;;;;;;;9.95;6.32;;;7.70;99.90;;;6.94;100.00;96931.38;5027735;28;20037;-49
2023/04/20 09:31:28;;;;;;;10.80;6.32;;;7.60;99.90;;;6.86;100.00;96934.22;5028038;28;20017;-48
2023/04/20 09:33:59;;;;;;;8.10;6.35;;;7.50;99.90;;;6.66;100.00;96930.41;5023201;28;20037;-48
2023/04/20 09:36:49;;;;;;;8.67;6.10;;;7.50;99.90;;;6.69;100.00;96929.47;5028941;28;20529;-47
2023/04/20 09:39:22;;;;;;;8.25;6.10;;;7.40;99.90;;;6.79;100.00;96930.91;5028464;28;20032;-50
2023/04/20 09:41:51;;;;;;;9.98;6.97;;;7.50;99.90;;;6.87;100.00;96926.31;5024741;28;20028;-48
2023/04/20 09:44:18;;;;;;;8.93;6.03;;;7.60;99.90;;;6.86;100.00;96924.59;5027080;28;20056;-49
2023/04/20 09:46:45;;;;;;;7.82;5.70;;;7.60;99.90;;;6.84;100.00;96929.03;5028422;28;20021;-48
2023/04/20 09:49:13;;;;;;;9.88;6.82;;;7.60;99.90;;;6.85;100.00;96919.38;5028338;28;20041;-50
2023/04/20 09:51:44;;;;;;;9.85;5.78;;;7.60;99.90;;;6.92;100.00;96920.94;5027944;28;20056;-46
2023/04/20 09:54:11;;;;;;;9.48;5.32;;;7.60;99.90;;;6.92;100.00;96923.53;5021293;28;20029;-49
2023/04/20 09:56:38;;;;;;;10.50;6.80;;;7.60;99.90;;;6.89;100.00;96921.00;5020948;28;20540;-49
2023/04/20 09:59:03;;;;;;;10.43;6.75;;;7.70;99.90;;;6.81;100.00;96918.63;5024654;28;20037;-48
2023/04/20 10:01:33;;;;;;;9.40;6.15;;;7.60;99.90;;;6.81;100.00;96920.38;5030504;28;20535;-49
2023/04/20 10:04:00;;;;;;;8.00;6.35;;;7.50;99.90;;;6.77;100.00;96918.78;5018863;28;20082;-46
2023/04/20 10:06:36;;;;;;;7.47;5.50;;;7.50;99.90;;;6.76;100.00;96922.28;5025188;28;20026;-46
2023/04/20 10:09:06;;;;;;;8.10;5.50;;;7.40;99.90;;;6.79;100.00;96922.22;5028440;28;20105;-49
2023/04/20 10:11:33;;;;;;;9.63;6.38;;;7.40;99.90;;;6.77;100.00;96924.00;5024730;28;20980;-50
2023/04/20 10:14:14;;;;;;;13.60;6.43;;;7.50;99.90;;;6.81;100.00;96916.00;5023178;28;20037;-49
2023/04/20 10:16:40;;;;;;;9.13;6.30;;;7.50;99.90;;;6.85;100.00;96916.78;5026971;28;20031;-50
2023/04/20 10:19:06;;;;;;;9.75;6.65;;;7.50;99.90;;;6.95;100.00;96910.34;5009779;28;20065;-49
2023/04/20 10:21:44;;;;;;;9.15;6.25;;;7.60;99.90;;;7.12;100.00;96901.09;5026313;28;20228;-49